createdAt,value
2023-01-26T00:00:08.075Z,8.50
2023-01-26T00:02:39.169Z,8.70
2023-01-26T00:05:10.897Z,8.40
2023-01-26T00:07:45.515Z,8.00
2023-01-26T00:10:17.001Z,8.60
2023-01-26T00:12:47.666Z,8.90
2023-01-26T00:15:18.667Z,8.30
2023-01-26T00:17:51.625Z,8.50
2023-01-26T00:20:22.269Z,8.70
2023-01-26T00:22:52.948Z,8.10
2023-01-26T00:25:23.632Z,10.20
2023-01-26T00:27:54.489Z,9.00
2023-01-26T00:30:25.399Z,8.40
2023-01-26T00:32:57.651Z,9.10
2023-01-26T00:35:28.413Z,8.70
2023-01-26T00:37:59.709Z,7.70
2023-01-26T00:40:30.321Z,8.00
2023-01-26T00:43:01.343Z,8.10
2023-01-26T00:45:32.023Z,8.20
2023-01-26T00:48:02.842Z,8.60
2023-01-26T00:50:34.110Z,7.80
2023-01-26T00:53:04.764Z,8.00
2023-01-26T00:55:35.791Z,9.20
2023-01-26T00:58:09.082Z,8.60
2023-01-26T01:00:40.907Z,8.80
2023-01-26T01:03:11.795Z,8.20
2023-01-26T01:05:42.399Z,8.70
2023-01-26T01:08:13.068Z,7.40
2023-01-26T01:10:43.715Z,7.80
2023-01-26T01:13:14.323Z,8.80
2023-01-26T01:15:45.044Z,7.70
2023-01-26T01:18:15.981Z,8.00
2023-01-26T01:20:46.646Z,8.00
2023-01-26T01:23:17.386Z,7.40
2023-01-26T01:25:48.000Z,7.60
2023-01-26T01:28:18.756Z,7.40
2023-01-26T01:30:49.399Z,7.70
2023-01-26T01:33:20.334Z,7.40
2023-01-26T01:36:00.681Z,7.30
2023-01-26T01:38:31.611Z,7.20
2023-01-26T01:41:02.671Z,7.00
2023-01-26T01:43:33.833Z,7.50
2023-01-26T01:46:07.336Z,7.30
2023-01-26T01:48:45.943Z,7.20
2023-01-26T01:51:21.189Z,6.60
2023-01-26T01:53:55.481Z,7.10
2023-01-26T01:56:29.917Z,7.80
2023-01-26T01:59:02.855Z,7.50
2023-01-26T02:01:33.672Z,9.10
2023-01-26T02:04:07.234Z,7.40
2023-01-26T02:06:41.890Z,6.70
2023-01-26T02:09:34.248Z,7.00
2023-01-26T02:12:07.539Z,8.00
2023-01-26T02:14:39.408Z,7.10
2023-01-26T02:17:10.692Z,6.70
2023-01-26T02:19:50.544Z,6.30
2023-01-26T02:25:00.535Z,6.80
2023-01-26T02:27:31.545Z,6.40
2023-01-26T02:30:04.142Z,6.30
2023-01-26T02:32:35.004Z,6.40
2023-01-26T02:35:06.480Z,6.90
2023-01-26T02:37:37.371Z,6.50
2023-01-26T02:40:16.384Z,6.70
2023-01-26T02:42:47.061Z,6.60
2023-01-26T02:45:19.121Z,7.00
2023-01-26T02:47:49.868Z,6.20
2023-01-26T02:50:21.209Z,7.20
2023-01-26T02:52:52.006Z,6.40
2023-01-26T02:55:29.345Z,6.40
2023-01-26T02:58:01.904Z,7.10
2023-01-26T03:00:37.332Z,6.40
2023-01-26T03:03:13.483Z,7.00
2023-01-26T03:05:44.923Z,6.00
2023-01-26T03:08:15.930Z,6.30
2023-01-26T03:10:48.325Z,5.20
2023-01-26T03:13:19.353Z,6.20
2023-01-26T03:15:54.718Z,5.60
2023-01-26T03:18:43.745Z,7.00
2023-01-26T03:21:34.502Z,6.20
2023-01-26T03:24:23.442Z,6.20
2023-01-26T03:27:12.142Z,5.70
2023-01-26T03:29:42.894Z,5.10
2023-01-26T03:32:14.086Z,6.00
2023-01-26T03:34:45.456Z,5.00
2023-01-26T03:37:16.092Z,6.80
2023-01-26T03:40:04.359Z,5.40
2023-01-26T03:42:52.894Z,4.70
2023-01-26T03:45:41.520Z,5.30
2023-01-26T03:48:31.176Z,5.00
2023-01-26T03:51:19.246Z,5.50
2023-01-26T03:54:07.442Z,5.30
2023-01-26T03:56:38.101Z,5.10
2023-01-26T03:59:09.594Z,5.00
2023-01-26T04:01:42.483Z,5.30
2023-01-26T04:04:31.054Z,5.20
2023-01-26T04:07:19.304Z,5.90
2023-01-26T04:09:49.975Z,4.50
2023-01-26T04:12:20.910Z,5.30
2023-01-26T04:15:09.135Z,5.00
2023-01-26T04:17:57.630Z,5.40
2023-01-26T04:20:46.192Z,4.50
2023-01-26T04:23:21.913Z,4.80
2023-01-26T04:25:52.612Z,4.80
2023-01-26T04:28:23.607Z,4.60
2023-01-26T04:30:54.406Z,4.00
2023-01-26T04:33:25.558Z,5.90
2023-01-26T04:35:56.611Z,4.10
2023-01-26T04:38:27.444Z,4.40
2023-01-26T04:40:58.374Z,4.10
2023-01-26T04:43:29.559Z,5.00
2023-01-26T04:46:05.923Z,4.80
2023-01-26T04:48:37.374Z,4.40
2023-01-26T04:51:11.390Z,4.70
2023-01-26T04:53:42.701Z,4.60
2023-01-26T04:56:20.324Z,4.70
2023-01-26T04:58:51.138Z,4.90
2023-01-26T05:01:22.827Z,5.60
2023-01-26T05:03:53.999Z,4.20
2023-01-26T05:06:24.899Z,5.20
2023-01-26T05:08:55.638Z,6.40
2023-01-26T05:11:26.542Z,4.30
2023-01-26T05:13:57.210Z,7.50
2023-01-26T05:16:28.010Z,6.90
2023-01-26T05:18:58.891Z,25.40
2023-01-26T05:21:29.568Z,21.60
2023-01-26T05:24:00.224Z,29.80
2023-01-26T05:26:31.246Z,23.50
2023-01-26T05:29:01.985Z,22.30
2023-01-26T05:31:32.807Z,23.90
2023-01-26T05:34:03.439Z,27.00
2023-01-26T05:36:34.033Z,24.30
2023-01-26T05:39:04.998Z,25.10
2023-01-26T05:41:35.660Z,23.70
2023-01-26T05:44:07.173Z,20.60
2023-01-26T05:46:38.233Z,21.70
2023-01-26T05:49:09.057Z,21.10
2023-01-26T05:51:39.917Z,20.20
2023-01-26T05:54:10.757Z,21.50
2023-01-26T05:56:41.389Z,14.80
2023-01-26T05:59:12.436Z,15.50
2023-01-26T06:01:43.392Z,13.90
2023-01-26T06:04:14.119Z,16.00
2023-01-26T06:06:45.221Z,16.00
2023-01-26T06:09:16.529Z,14.10
2023-01-26T06:11:47.556Z,12.40
2023-01-26T06:14:18.520Z,12.70
2023-01-26T06:16:49.325Z,14.30
2023-01-26T06:19:20.277Z,12.80
2023-01-26T06:21:53.645Z,12.30
2023-01-26T06:24:24.407Z,10.20
2023-01-26T06:26:55.070Z,11.70
2023-01-26T06:29:26.315Z,9.40
2023-01-26T06:31:57.126Z,11.20
2023-01-26T06:34:28.194Z,12.90
2023-01-26T06:36:58.928Z,13.20
2023-01-26T06:39:29.623Z,8.90
2023-01-26T06:42:00.497Z,10.90
2023-01-26T06:44:31.245Z,11.30
2023-01-26T06:47:02.216Z,8.60
2023-01-26T06:49:33.337Z,10.00
2023-01-26T06:52:20.741Z,8.80
2023-01-26T06:54:52.807Z,8.60
2023-01-26T06:57:23.756Z,9.40
2023-01-26T06:59:56.256Z,9.00
2023-01-26T07:02:27.168Z,8.70
2023-01-26T07:04:57.776Z,8.80
2023-01-26T07:07:29.249Z,8.40
2023-01-26T07:10:00.455Z,7.30
2023-01-26T07:12:40.831Z,7.60
2023-01-26T07:15:13.446Z,8.70
2023-01-26T07:17:44.300Z,8.20
2023-01-26T07:20:16.056Z,7.50
2023-01-26T07:22:46.905Z,7.00
2023-01-26T07:25:18.117Z,9.50
2023-01-26T07:27:48.863Z,10.00
2023-01-26T07:30:20.329Z,6.70
2023-01-26T07:32:51.280Z,8.90
2023-01-26T07:35:22.218Z,7.70
2023-01-26T07:37:53.108Z,4.80
2023-01-26T07:40:24.083Z,6.00
2023-01-26T07:42:56.483Z,8.50
2023-01-26T07:45:27.619Z,5.00
2023-01-26T07:47:58.487Z,6.30
2023-01-26T07:50:29.431Z,6.50
2023-01-26T07:53:02.886Z,6.90
2023-01-26T07:55:33.745Z,8.40
2023-01-26T07:58:04.482Z,6.80
2023-01-26T08:00:35.286Z,6.50
2023-01-26T08:03:07.492Z,7.30
2023-01-26T08:05:38.712Z,6.70
2023-01-26T08:08:10.812Z,4.80
2023-01-26T08:10:41.492Z,7.60
2023-01-26T08:13:12.591Z,5.30
2023-01-26T08:15:43.538Z,5.50
2023-01-26T08:18:14.277Z,5.50
2023-01-26T08:20:50.414Z,5.80
2023-01-26T08:23:22.325Z,5.40
2023-01-26T08:25:53.318Z,5.80
2023-01-26T08:28:24.449Z,5.20
2023-01-26T08:30:55.170Z,5.20
2023-01-26T08:33:26.265Z,5.10
2023-01-26T08:36:01.614Z,6.40
2023-01-26T08:38:35.269Z,3.90
2023-01-26T08:41:07.363Z,4.20
2023-01-26T08:43:38.371Z,4.90
2023-01-26T08:46:09.984Z,5.10
2023-01-26T08:48:40.875Z,4.50
2023-01-26T08:51:11.898Z,4.50
2023-01-26T08:53:42.647Z,5.30
2023-01-26T08:56:14.382Z,4.00
2023-01-26T08:58:45.302Z,4.10
2023-01-26T09:01:18.523Z,4.40
2023-01-26T09:03:51.397Z,3.60
2023-01-26T09:06:22.269Z,4.30
2023-01-26T09:08:53.170Z,5.70
2023-01-26T09:11:24.013Z,4.20
2023-01-26T09:13:56.843Z,4.60
2023-01-26T09:16:27.635Z,4.50
2023-01-26T09:18:58.978Z,4.00
2023-01-26T09:21:29.936Z,3.40
2023-01-26T09:24:00.891Z,4.70
2023-01-26T09:26:31.937Z,4.50
2023-01-26T09:29:03.902Z,3.60
2023-01-26T09:31:34.968Z,4.00
2023-01-26T09:34:06.188Z,4.10
2023-01-26T09:36:37.020Z,3.30
2023-01-26T09:39:08.271Z,4.30
2023-01-26T09:41:51.124Z,3.70
2023-01-26T09:44:26.646Z,3.40
2023-01-26T09:47:07.896Z,4.10
2023-01-26T09:49:49.750Z,3.10
2023-01-26T09:52:27.908Z,3.40
2023-01-26T09:55:02.141Z,3.50
2023-01-26T09:57:38.824Z,3.50
2023-01-26T10:00:21.413Z,4.20
2023-01-26T10:03:09.332Z,4.10
2023-01-26T10:05:47.037Z,2.90
2023-01-26T10:08:20.218Z,3.80
2023-01-26T10:10:54.639Z,2.80
2023-01-26T10:13:29.053Z,3.80
2023-01-26T10:16:03.169Z,3.00
2023-01-26T10:18:38.256Z,3.10
2023-01-26T10:21:12.188Z,2.90
2023-01-26T10:23:48.537Z,2.80
2023-01-26T10:26:20.719Z,3.30
2023-01-26T10:28:53.235Z,2.50
2023-01-26T10:31:26.532Z,2.40
2023-01-26T10:33:59.877Z,2.80
2023-01-26T10:36:33.281Z,3.90
2023-01-26T10:39:08.991Z,2.90
2023-01-26T10:41:40.397Z,2.60
2023-01-26T10:44:27.273Z,3.90
2023-01-26T10:47:20.530Z,3.10
2023-01-26T10:49:51.640Z,2.70
2023-01-26T10:52:25.164Z,2.90
2023-01-26T10:55:13.339Z,3.40
2023-01-26T10:57:44.839Z,2.90
2023-01-26T11:00:29.005Z,3.40
2023-01-26T11:03:08.058Z,2.50
2023-01-26T11:05:38.816Z,2.90
2023-01-26T11:08:35.628Z,3.10
2023-01-26T11:11:10.412Z,3.00
2023-01-26T11:13:41.229Z,2.60
2023-01-26T11:16:21.673Z,3.10
2023-01-26T11:18:59.095Z,2.80
2023-01-26T11:21:35.408Z,2.50
2023-01-26T11:24:13.028Z,2.80
2023-01-26T11:27:11.130Z,2.60
2023-01-26T11:29:59.925Z,2.40
2023-01-26T11:32:39.513Z,2.90
2023-01-26T11:35:24.161Z,2.70
2023-01-26T11:38:07.060Z,2.60
2023-01-26T11:40:48.373Z,3.60
2023-01-26T11:43:48.440Z,2.90
2023-01-26T11:46:43.621Z,3.00
2023-01-26T11:49:26.910Z,3.00
2023-01-26T11:52:10.610Z,2.70
2023-01-26T11:55:08.216Z,4.60
2023-01-26T11:57:52.120Z,3.00
2023-01-26T12:00:30.787Z,2.90
2023-01-26T12:03:06.077Z,2.70
2023-01-26T12:05:45.325Z,2.70
2023-01-26T12:08:23.339Z,3.30
2023-01-26T12:11:22.600Z,2.50
2023-01-26T12:14:13.994Z,3.40
2023-01-26T12:17:11.507Z,2.80
2023-01-26T12:19:54.686Z,2.70
2023-01-26T12:22:32.685Z,2.60
2023-01-26T12:25:20.851Z,3.00
2023-01-26T12:27:58.347Z,3.10
2023-01-26T12:30:38.851Z,2.10
2023-01-26T12:33:11.896Z,2.90
2023-01-26T12:36:00.895Z,3.10
2023-01-26T12:38:44.160Z,3.90
2023-01-26T12:41:23.601Z,3.40
2023-01-26T12:44:04.644Z,3.00
2023-01-26T12:46:41.494Z,3.10
2023-01-26T12:49:21.446Z,3.30
2023-01-26T12:51:57.994Z,2.10
2023-01-26T12:54:38.477Z,2.60
2023-01-26T12:57:15.189Z,2.90
2023-01-26T12:59:47.872Z,2.70
2023-01-26T13:02:30.891Z,2.60
2023-01-26T13:05:04.727Z,2.50
2023-01-26T13:10:26.890Z,3.30
2023-01-26T13:13:00.719Z,3.60
2023-01-26T13:18:03.187Z,2.40
2023-01-26T13:20:53.410Z,2.90
2023-01-26T13:23:53.086Z,3.10
2023-01-26T13:26:53.530Z,2.90
2023-01-26T13:29:37.292Z,3.50
2023-01-26T13:32:46.906Z,3.30
2023-01-26T13:35:21.883Z,3.30
2023-01-26T13:37:58.783Z,3.40
2023-01-26T13:40:32.817Z,2.90
2023-01-26T13:43:25.665Z,3.50
2023-01-26T13:46:07.687Z,2.40
2023-01-26T13:48:46.489Z,2.50
2023-01-26T13:51:20.670Z,3.00
2023-01-26T13:53:58.391Z,4.10
2023-01-26T13:56:33.849Z,3.30
2023-01-26T13:59:14.003Z,3.30
2023-01-26T14:01:47.615Z,3.70
2023-01-26T14:04:21.617Z,2.30
2023-01-26T14:06:57.528Z,2.40
2023-01-26T14:09:31.765Z,2.90
2023-01-26T14:12:05.360Z,3.50
2023-01-26T14:14:38.589Z,2.30
2023-01-26T14:17:24.753Z,3.30
2023-01-26T14:19:55.798Z,3.10
2023-01-26T14:22:27.344Z,3.20
2023-01-26T14:24:58.605Z,3.20
2023-01-26T14:27:36.877Z,2.80
2023-01-26T14:30:26.498Z,2.60
2023-01-26T14:33:06.538Z,2.60
2023-01-26T14:35:37.470Z,3.20
2023-01-26T14:38:18.067Z,2.60
2023-01-26T14:40:49.957Z,2.60
2023-01-26T14:43:21.684Z,8.10
2023-01-26T14:45:56.851Z,4.90
2023-01-26T14:48:33.059Z,8.80
2023-01-26T14:51:08.281Z,4.70
2023-01-26T14:53:39.128Z,7.00
2023-01-26T14:56:20.904Z,3.50
2023-01-26T14:58:55.754Z,3.50
2023-01-26T15:01:28.129Z,5.50
2023-01-26T15:04:08.215Z,4.30
2023-01-26T15:06:39.041Z,5.00
2023-01-26T15:09:26.366Z,4.80
2023-01-26T15:12:18.097Z,5.40
2023-01-26T15:14:57.081Z,5.50
2023-01-26T15:17:38.138Z,5.10
2023-01-26T15:20:45.387Z,4.80
2023-01-26T15:23:32.149Z,4.60
2023-01-26T15:26:13.570Z,5.10
2023-01-26T15:28:44.639Z,3.60
2023-01-26T15:31:26.757Z,6.50
2023-01-26T15:34:01.738Z,3.00
2023-01-26T15:36:47.892Z,4.10
2023-01-26T15:39:20.821Z,3.70
2023-01-26T15:42:12.678Z,4.00
2023-01-26T15:44:43.834Z,4.10
2023-01-26T15:47:15.000Z,3.70
2023-01-26T15:49:45.776Z,5.50
2023-01-26T15:52:18.408Z,4.20
2023-01-26T15:54:49.828Z,5.20
2023-01-26T15:57:21.090Z,2.70
2023-01-26T15:59:52.057Z,2.50
2023-01-26T16:02:24.006Z,3.20
2023-01-26T16:04:55.072Z,4.20
2023-01-26T16:07:27.013Z,4.50
2023-01-26T16:10:00.182Z,3.40
2023-01-26T16:12:32.572Z,2.70
2023-01-26T16:15:03.962Z,2.90
2023-01-26T16:17:35.145Z,3.20
2023-01-26T16:20:06.786Z,3.60
2023-01-26T16:22:37.729Z,3.50
2023-01-26T16:25:20.800Z,3.20
2023-01-26T16:27:51.754Z,3.10
2023-01-26T16:30:23.063Z,3.30
2023-01-26T16:32:54.479Z,3.70
2023-01-26T16:35:28.932Z,5.10
2023-01-26T16:38:00.709Z,2.90
2023-01-26T16:40:31.540Z,3.00
2023-01-26T16:43:02.859Z,3.90
2023-01-26T16:45:33.918Z,3.50
2023-01-26T16:48:12.883Z,2.50
2023-01-26T16:50:45.092Z,3.20
2023-01-26T16:53:23.101Z,3.70
2023-01-26T16:55:54.244Z,3.30
2023-01-26T16:58:26.753Z,4.40
2023-01-26T17:00:57.899Z,3.90
2023-01-26T17:03:29.026Z,2.60
2023-01-26T17:06:00.151Z,2.90
2023-01-26T17:08:53.198Z,2.70
2023-01-26T17:11:27.731Z,3.30
2023-01-26T17:13:59.332Z,3.30
2023-01-26T17:16:32.777Z,3.00
2023-01-26T17:19:03.740Z,4.60
2023-01-26T17:21:34.784Z,4.70
2023-01-26T17:24:07.005Z,4.30
2023-01-26T17:26:37.836Z,6.00
2023-01-26T17:29:08.928Z,5.90
2023-01-26T17:31:40.054Z,6.70
2023-01-26T17:34:11.250Z,5.80
2023-01-26T17:36:44.224Z,6.50
2023-01-26T17:39:18.809Z,6.30
2023-01-26T17:41:49.673Z,5.00
2023-01-26T17:44:20.911Z,4.50
2023-01-26T17:46:51.826Z,5.60
2023-01-26T17:49:22.799Z,5.00
2023-01-26T17:51:53.641Z,5.90
2023-01-26T17:54:24.996Z,6.70
2023-01-26T17:56:56.032Z,6.50
2023-01-26T17:59:27.254Z,6.10
2023-01-26T18:01:58.198Z,6.10
2023-01-26T18:04:31.398Z,6.00
2023-01-26T18:07:03.131Z,7.70
2023-01-26T18:09:33.936Z,6.70
2023-01-26T18:12:05.226Z,6.10
2023-01-26T18:14:36.318Z,7.20
2023-01-26T18:17:07.411Z,6.00
2023-01-26T18:19:38.408Z,6.10
2023-01-26T18:22:09.452Z,6.50
2023-01-26T18:24:40.537Z,5.70
2023-01-26T18:27:11.916Z,6.70
2023-01-26T18:29:43.301Z,6.20
2023-01-26T18:32:14.810Z,6.10
2023-01-26T18:34:45.710Z,6.50
2023-01-26T18:37:16.893Z,6.00
2023-01-26T18:39:47.888Z,6.70
2023-01-26T18:42:18.831Z,6.80
2023-01-26T18:44:49.972Z,6.60
2023-01-26T18:47:20.924Z,6.30
2023-01-26T18:49:52.554Z,6.00
2023-01-26T18:52:26.352Z,6.00
2023-01-26T18:54:57.228Z,6.40
2023-01-26T18:57:28.177Z,5.90
2023-01-26T18:59:59.220Z,7.10
2023-01-26T19:02:33.782Z,7.60
2023-01-26T19:05:05.178Z,7.70
2023-01-26T19:07:36.231Z,7.60
2023-01-26T19:10:08.364Z,6.40
2023-01-26T19:12:39.352Z,8.50
2023-01-26T19:15:12.961Z,5.50
2023-01-26T19:17:45.028Z,7.10
2023-01-26T19:20:17.213Z,7.80
2023-01-26T19:22:54.184Z,7.70
2023-01-26T19:25:27.207Z,8.10
2023-01-26T19:27:58.111Z,6.20
2023-01-26T19:30:29.368Z,6.30
2023-01-26T19:33:17.907Z,5.60
2023-01-26T19:35:48.846Z,6.50
2023-01-26T19:38:20.642Z,7.80
2023-01-26T19:40:53.409Z,6.50
2023-01-26T19:43:24.185Z,8.00
2023-01-26T19:45:56.323Z,6.80
2023-01-26T19:48:28.721Z,6.70
2023-01-26T19:51:05.411Z,7.10
2023-01-26T19:53:37.780Z,7.00
2023-01-26T19:56:14.105Z,7.80
2023-01-26T19:58:45.545Z,7.30
2023-01-26T20:01:16.532Z,7.30
2023-01-26T20:03:52.355Z,6.40
2023-01-26T20:06:25.494Z,7.40
2023-01-26T20:08:56.816Z,6.50
2023-01-26T20:11:29.662Z,8.20
2023-01-26T20:14:02.321Z,6.80
2023-01-26T20:16:34.499Z,6.70
2023-01-26T20:19:05.921Z,6.50
2023-01-26T20:21:38.932Z,7.80
2023-01-26T20:24:13.912Z,6.90
2023-01-26T20:26:46.786Z,7.80
2023-01-26T20:29:20.960Z,7.30
2023-01-26T20:31:52.411Z,8.50
2023-01-26T20:34:23.516Z,5.60
2023-01-26T20:36:57.814Z,6.90
2023-01-26T20:39:29.190Z,7.10
2023-01-26T20:42:00.463Z,6.40
2023-01-26T20:44:31.388Z,5.40
2023-01-26T20:47:02.325Z,5.80
2023-01-26T20:49:33.153Z,6.50
2023-01-26T20:52:06.169Z,5.90
2023-01-26T20:54:37.283Z,6.60
2023-01-26T20:57:08.093Z,7.00
2023-01-26T20:59:39.396Z,5.60
2023-01-26T21:02:15.485Z,5.70
2023-01-26T21:04:47.327Z,8.10
2023-01-26T21:07:18.312Z,6.70
2023-01-26T21:09:49.182Z,6.50
2023-01-26T21:12:22.361Z,7.60
2023-01-26T21:14:53.154Z,6.30
2023-01-26T21:17:24.670Z,7.60
2023-01-26T21:19:55.471Z,8.80
2023-01-26T21:22:26.743Z,6.70
2023-01-26T21:24:57.473Z,8.70
2023-01-26T21:27:28.667Z,8.20
2023-01-26T21:29:59.901Z,6.50
2023-01-26T21:32:30.843Z,7.10
2023-01-26T21:35:01.595Z,10.20
2023-01-26T21:37:32.238Z,8.50
2023-01-26T21:40:04.175Z,15.00
2023-01-26T21:42:36.647Z,8.80
2023-01-26T21:45:26.678Z,12.60
2023-01-26T21:48:15.235Z,7.60
2023-01-26T21:51:03.593Z,9.80
2023-01-26T21:53:34.373Z,8.20
2023-01-26T21:56:05.387Z,7.50
2023-01-26T21:58:53.945Z,10.00
2023-01-26T22:01:26.266Z,6.70
2023-01-26T22:03:59.286Z,6.30
2023-01-26T22:06:30.575Z,5.70
2023-01-26T22:09:01.705Z,8.40
2023-01-26T22:11:32.859Z,6.10
2023-01-26T22:14:04.000Z,5.90
2023-01-26T22:16:35.076Z,5.60
2023-01-26T22:19:05.978Z,8.30
2023-01-26T22:21:36.660Z,6.30
2023-01-26T22:24:11.566Z,7.50
2023-01-26T22:26:42.694Z,6.90
2023-01-26T22:29:14.260Z,6.40
2023-01-26T22:31:45.119Z,6.00
2023-01-26T22:34:15.937Z,11.70
2023-01-26T22:36:46.555Z,13.50
2023-01-26T22:39:17.310Z,16.60
2023-01-26T22:41:47.974Z,12.40
2023-01-26T22:44:18.665Z,17.80
2023-01-26T22:46:49.430Z,10.90
2023-01-26T22:49:20.504Z,10.00
2023-01-26T22:51:51.231Z,15.10
2023-01-26T22:54:22.167Z,13.80
2023-01-26T22:56:52.986Z,12.70
2023-01-26T22:59:23.662Z,12.60
2023-01-26T23:01:54.362Z,8.90
2023-01-26T23:04:25.472Z,11.70
2023-01-26T23:06:56.232Z,9.90
2023-01-26T23:09:27.084Z,10.70
2023-01-26T23:11:57.920Z,10.40
2023-01-26T23:14:28.978Z,7.90
2023-01-26T23:17:00.243Z,9.30
2023-01-26T23:19:33.691Z,10.30
2023-01-26T23:22:04.795Z,10.10
2023-01-26T23:24:35.712Z,7.80
2023-01-26T23:27:06.618Z,9.60
2023-01-26T23:29:37.313Z,7.80
2023-01-26T23:32:08.709Z,7.10
2023-01-26T23:34:39.607Z,8.80
2023-01-26T23:37:10.431Z,5.90
2023-01-26T23:39:41.132Z,8.60
2023-01-26T23:42:13.450Z,8.00
2023-01-26T23:44:45.711Z,7.50
2023-01-26T23:47:16.660Z,6.70
2023-01-26T23:49:47.587Z,7.80
2023-01-26T23:52:18.263Z,7.70
2023-01-26T23:54:49.166Z,8.60
2023-01-26T23:57:19.776Z,7.00
2023-01-26T23:59:50.826Z,8.00
